Time;durP1;ratioP1;P1;durP2;ratioP2;P2;SDS_P1;SDS_P2;PMS_P1;PMS_P2;Temp;Humidity;BMP_temperature;BMP_pressure;BME280_temperature;BME280_humidity;BME280_pressure;Samples;Min_cycle;Max_cycle;Signal;HPM_P1;HPM_P2
2023/10/23 00:00:45;;;;;;;;;;;13.50;87.60;;;;;;5025714;28;20822;-77
2023/10/23 00:03:11;;;;;;;0.00;0.00;;;13.50;87.10;;;;;;5025193;28;19915;-77
2023/10/23 00:05:37;;;;;;;0.00;0.00;;;13.60;86.90;;;;;;5046355;28;20037;-77
2023/10/23 00:08:02;;;;;;;0.05;0.05;;;13.70;87.10;;;;;;5045504;28;20104;-78
2023/10/23 00:10:28;;;;;;;0.00;0.00;;;13.70;86.70;;;;;;5041064;28;20507;-77
2023/10/23 00:12:55;;;;;;;0.00;0.00;;;13.70;87.00;;;;;;5040896;28;21310;-77
2023/10/23 00:15:21;;;;;;;0.05;0.05;;;13.70;86.70;;;;;;5042568;28;20036;-77
2023/10/23 00:17:46;;;;;;;0.00;0.00;;;13.70;86.60;;;;;;5047598;28;20087;-77
2023/10/23 00:20:12;;;;;;;0.00;0.00;;;13.80;86.60;;;;;;5045541;28;20040;-78
2023/10/23 00:22:38;;;;;;;0.00;0.00;;;13.70;86.90;;;;;;5041529;28;20558;-78
2023/10/23 00:25:04;;;;;;;0.00;0.00;;;13.70;87.00;;;;;;5036240;28;20507;-79
2023/10/23 00:27:29;;;;;;;0.00;0.00;;;13.70;87.00;;;;;;5035448;28;20063;-78
2023/10/23 00:29:55;;;;;;;0.00;0.00;;;13.80;86.60;;;;;;5037955;28;20032;-78
2023/10/23 00:32:21;;;;;;;0.00;0.00;;;13.80;86.80;;;;;;5029926;28;20029;-78
2023/10/23 00:34:46;;;;;;;0.00;0.00;;;13.90;86.60;;;;;;5020096;28;20029;-79
2023/10/23 00:37:12;;;;;;;0.00;0.00;;;13.80;87.00;;;;;;5035166;28;20025;-79
2023/10/23 00:39:38;;;;;;;0.10;0.10;;;13.90;86.60;;;;;;5042810;28;20448;-79
2023/10/23 00:42:04;;;;;;;0.00;0.00;;;13.90;86.80;;;;;;5033244;28;20032;-79
2023/10/23 00:44:30;;;;;;;0.00;0.00;;;13.90;86.20;;;;;;5029537;28;20028;-79
2023/10/23 00:46:56;;;;;;;0.03;0.03;;;14.00;86.20;;;;;;5042538;28;20037;-78
2023/10/23 00:49:22;;;;;;;0.10;0.10;;;14.00;86.30;;;;;;5042788;28;20017;-79
2023/10/23 00:51:48;;;;;;;0.00;0.00;;;14.00;87.30;;;;;;5042494;28;20021;-78
2023/10/23 00:54:14;;;;;;;0.00;0.00;;;13.90;87.10;;;;;;5044629;28;20040;-78
2023/10/23 00:56:41;;;;;;;0.00;0.00;;;14.00;86.80;;;;;;5043569;28;20149;-78
2023/10/23 00:59:08;;;;;;;0.00;0.00;;;14.00;86.80;;;;;;5045813;28;20957;-78
2023/10/23 01:01:35;;;;;;;0.00;0.00;;;14.00;87.10;;;;;;5047010;28;20037;-79
2023/10/23 01:04:01;;;;;;;0.00;0.00;;;13.90;87.60;;;;;;5046848;28;20037;-78
2023/10/23 01:06:27;;;;;;;0.00;0.00;;;13.90;87.70;;;;;;5042013;28;20079;-78
2023/10/23 01:08:54;;;;;;;0.00;0.00;;;14.00;87.30;;;;;;5035933;28;20032;-78
2023/10/23 01:11:19;;;;;;;0.00;0.00;;;14.10;87.00;;;;;;5024198;28;20075;-80
2023/10/23 01:13:45;;;;;;;0.10;0.10;;;13.90;87.90;;;;;;5040224;28;20424;-79
2023/10/23 01:16:11;;;;;;;0.00;0.00;;;13.90;88.00;;;;;;5046138;28;20100;-79
2023/10/23 01:18:36;;;;;;;0.00;0.00;;;13.90;88.10;;;;;;5029124;28;20133;-79
2023/10/23 01:21:02;;;;;;;0.00;0.00;;;14.00;87.40;;;;;;5046105;28;20031;-79
2023/10/23 01:23:33;;;;;;;0.00;0.00;;;14.10;87.10;;;;;;5046097;28;20040;-79
2023/10/23 01:25:58;;;;;;;0.00;0.00;;;14.20;87.20;;;;;;5049637;28;20028;-79
2023/10/23 01:28:24;;;;;;;0.00;0.00;;;14.10;87.40;;;;;;5037854;28;20025;-79
2023/10/23 01:30:50;;;;;;;0.00;0.00;;;14.20;87.80;;;;;;5043689;28;20044;-79
2023/10/23 01:33:16;;;;;;;0.00;0.00;;;14.20;87.20;;;;;;5046014;28;20045;-79
2023/10/23 01:35:42;;;;;;;0.00;0.00;;;14.20;87.10;;;;;;5044127;28;20032;-79
2023/10/23 01:38:07;;;;;;;0.10;0.10;;;14.10;87.50;;;;;;5043233;28;20082;-80
2023/10/23 01:40:33;;;;;;;0.00;0.00;;;14.20;87.50;;;;;;5027631;28;20021;-79
2023/10/23 01:42:59;;;;;;;0.30;0.30;;;14.40;86.80;;;;;;5045572;28;20719;-80
2023/10/23 01:45:24;;;;;;;0.10;0.10;;;14.40;86.90;;;;;;5043559;28;20473;-79
2023/10/23 01:47:50;;;;;;;0.00;0.00;;;14.40;86.80;;;;;;5046069;28;20614;-80
2023/10/23 01:50:16;;;;;;;0.00;0.00;;;14.40;87.10;;;;;;5042733;28;20029;-79
2023/10/23 01:52:41;;;;;;;0.00;0.00;;;14.40;87.30;;;;;;5052588;28;20117;-79
2023/10/23 01:55:08;;;;;;;0.00;0.00;;;14.30;87.60;;;;;;5055740;28;20031;-79
2023/10/23 01:57:34;;;;;;;;;;;14.30;88.10;;;;;;5046434;28;20025;-79
2023/10/23 02:00:04;;;;;;;0.00;0.00;;;14.30;88.50;;;;;;5045031;28;19931;-78
2023/10/23 02:02:31;;;;;;;0.00;0.00;;;14.10;89.80;;;;;;5046702;28;20041;-78
2023/10/23 02:04:57;;;;;;;0.00;0.00;;;14.30;90.60;;;;;;5045573;28;20507;-79
2023/10/23 02:07:22;;;;;;;0.10;0.10;;;14.30;90.80;;;;;;5041531;28;20108;-79
2023/10/23 02:09:48;;;;;;;0.10;0.10;;;14.20;90.80;;;;;;5053195;28;20479;-79
2023/10/23 02:12:14;;;;;;;0.00;0.00;;;14.20;91.40;;;;;;5045312;28;20108;-78
2023/10/23 02:14:39;;;;;;;0.00;0.00;;;13.90;92.90;;;;;;5047082;28;20041;-78
2023/10/23 02:17:05;;;;;;;0.00;0.00;;;13.90;93.90;;;;;;5047107;28;20058;-78
2023/10/23 02:19:31;;;;;;;0.00;0.00;;;13.80;96.30;;;;;;5048923;28;20039;-79
2023/10/23 02:21:56;;;;;;;0.00;0.00;;;13.80;96.90;;;;;;5025822;28;20039;-79
2023/10/23 02:24:22;;;;;;;0.00;0.00;;;13.50;98.50;;;;;;5042781;28;20037;-80
2023/10/23 02:26:48;;;;;;;0.00;0.00;;;13.40;99.90;;;;;;5040316;28;20032;-79
2023/10/23 02:29:14;;;;;;;0.00;0.00;;;13.20;99.90;;;;;;5045068;28;20515;-80
2023/10/23 02:31:40;;;;;;;0.00;0.00;;;13.20;99.90;;;;;;5045268;28;20040;-79
2023/10/23 02:34:06;;;;;;;0.00;0.00;;;13.30;99.90;;;;;;5041977;28;20069;-79
2023/10/23 02:36:32;;;;;;;9.10;1.30;;;13.30;99.90;;;;;;5049649;28;20032;-79
2023/10/23 02:38:59;;;;;;;0.00;0.00;;;13.80;99.90;;;;;;5042093;28;20022;-79
2023/10/23 02:41:25;;;;;;;;;;;13.70;99.90;;;;;;5041839;28;20104;-79
2023/10/23 02:43:51;;;;;;;0.00;0.00;;;13.80;99.90;;;;;;5045271;28;19913;-79
2023/10/23 02:46:16;;;;;;;0.00;0.00;;;14.00;98.90;;;;;;5019005;28;20103;-78
2023/10/23 02:48:42;;;;;;;0.00;0.00;;;14.00;98.50;;;;;;5049675;28;20103;-78
2023/10/23 02:51:08;;;;;;;0.00;0.00;;;14.10;98.70;;;;;;5045747;28;20080;-78
2023/10/23 02:53:35;;;;;;;0.00;0.00;;;14.10;99.10;;;;;;5044952;28;20044;-77
2023/10/23 02:56:00;;;;;;;0.00;0.00;;;13.90;99.90;;;;;;5044343;28;20028;-77
2023/10/23 02:58:26;;;;;;;0.00;0.00;;;13.80;99.90;;;;;;5044032;28;20057;-77
2023/10/23 03:00:52;;;;;;;0.00;0.00;;;13.90;99.90;;;;;;5044272;28;20056;-77
2023/10/23 03:03:17;;;;;;;0.00;0.00;;;13.80;99.90;;;;;;5043744;28;20056;-78
2023/10/23 03:05:43;;;;;;;0.10;0.10;;;13.70;99.90;;;;;;5045193;28;20021;-78
2023/10/23 03:08:09;;;;;;;0.05;0.05;;;13.90;99.90;;;;;;5030766;28;20076;-79
2023/10/23 03:10:34;;;;;;;0.00;0.00;;;13.80;99.90;;;;;;5044470;28;20132;-77
2023/10/23 03:13:00;;;;;;;0.00;0.00;;;14.00;99.90;;;;;;5044199;28;20040;-78
2023/10/23 03:15:26;;;;;;;0.00;0.00;;;14.20;99.90;;;;;;5040964;28;20528;-78
2023/10/23 03:17:51;;;;;;;0.00;0.00;;;14.20;99.90;;;;;;5047153;28;20029;-78
2023/10/23 03:20:18;;;;;;;0.00;0.00;;;14.20;99.90;;;;;;5046520;28;20562;-78
2023/10/23 03:22:44;;;;;;;0.00;0.00;;;14.30;99.90;;;;;;5036688;28;20020;-78
2023/10/23 03:25:10;;;;;;;0.00;0.00;;;14.40;99.60;;;;;;5042230;28;20086;-78
2023/10/23 03:27:36;;;;;;;0.00;0.00;;;14.30;99.90;;;;;;5041558;28;20074;-78
2023/10/23 03:30:02;;;;;;;0.00;0.00;;;13.80;99.90;;;;;;5041491;28;20082;-78
2023/10/23 03:32:29;;;;;;;0.00;0.00;;;13.60;99.90;;;;;;5038474;28;20041;-78
2023/10/23 03:34:55;;;;;;;0.00;0.00;;;13.30;99.90;;;;;;5044011;28;20079;-78
2023/10/23 03:37:20;;;;;;;0.00;0.00;;;13.30;99.90;;;;;;5044191;28;20124;-78
2023/10/23 03:39:46;;;;;;;0.05;0.05;;;13.60;99.90;;;;;;5049140;28;20068;-78
2023/10/23 03:42:12;;;;;;;0.00;0.00;;;13.80;99.90;;;;;;5029783;28;20397;-78
2023/10/23 03:44:37;;;;;;;0.00;0.00;;;13.50;99.90;;;;;;5039575;28;20035;-78
2023/10/23 03:47:04;;;;;;;0.00;0.00;;;13.30;99.90;;;;;;5041507;28;20865;-78
2023/10/23 03:49:30;;;;;;;0.00;0.00;;;13.40;99.90;;;;;;5048532;28;20036;-79
2023/10/23 03:51:56;;;;;;;0.10;0.10;;;13.40;99.90;;;;;;5032961;28;20127;-77
2023/10/23 03:54:21;;;;;;;0.10;0.10;;;12.80;99.90;;;;;;5044249;28;20029;-77
2023/10/23 03:56:47;;;;;;;0.10;0.10;;;12.60;99.90;;;;;;5052439;28;20064;-77
2023/10/23 03:59:13;;;;;;;0.00;0.00;;;12.60;99.90;;;;;;5044511;28;20045;-77
2023/10/23 04:01:38;;;;;;;0.00;0.00;;;12.60;99.90;;;;;;5043731;28;20108;-77
2023/10/23 04:04:04;;;;;;;0.00;0.00;;;12.50;99.90;;;;;;5025333;28;20364;-77
2023/10/23 04:06:30;;;;;;;0.00;0.00;;;12.50;99.90;;;;;;5028566;28;20032;-77
2023/10/23 04:08:55;;;;;;;0.00;0.00;;;12.50;99.90;;;;;;5050234;28;20403;-77
2023/10/23 04:11:22;;;;;;;0.00;0.00;;;12.60;99.90;;;;;;5047951;28;20024;-78
2023/10/23 04:13:48;;;;;;;0.00;0.00;;;12.50;99.90;;;;;;5043328;28;20068;-78
2023/10/23 04:16:15;;;;;;;0.00;0.00;;;12.60;99.90;;;;;;5041890;28;20773;-77
2023/10/23 04:18:42;;;;;;;0.00;0.00;;;12.60;99.90;;;;;;5041763;28;20387;-78
2023/10/23 04:21:09;;;;;;;0.10;0.10;;;12.60;99.90;;;;;;5044648;28;20032;-78
2023/10/23 04:23:38;;;;;;;0.00;0.00;;;12.60;99.90;;;;;;5042004;28;20048;-79
2023/10/23 04:26:06;;;;;;;0.00;0.00;;;12.60;99.90;;;;;;5035976;28;20024;-77
2023/10/23 04:28:32;;;;;;;0.10;0.10;;;12.80;99.90;;;;;;5041645;28;20396;-78
2023/10/23 04:30:58;;;;;;;0.00;0.00;;;12.80;99.90;;;;;;5038121;28;20075;-77
2023/10/23 04:33:24;;;;;;;0.00;0.00;;;12.50;99.90;;;;;;5038860;28;20048;-85
2023/10/23 04:35:58;;;;;;;0.00;0.00;;;12.60;99.90;;;;;;5036836;28;20029;-83
2023/10/23 04:38:24;;;;;;;0.85;0.85;;;12.70;99.90;;;;;;5034727;28;20044;-81
2023/10/23 04:40:53;;;;;;;0.00;0.00;;;12.60;99.90;;;;;;5037729;28;20044;-81
2023/10/23 04:43:19;;;;;;;0.00;0.00;;;12.50;99.90;;;;;;5041409;28;20044;-82
2023/10/23 04:45:44;;;;;;;0.10;0.10;;;12.70;99.90;;;;;;5040325;28;20029;-81
2023/10/23 04:48:10;;;;;;;0.00;0.00;;;12.50;99.90;;;;;;5023822;28;20033;-81
2023/10/23 04:50:37;;;;;;;0.00;0.00;;;12.50;99.90;;;;;;5036074;28;20103;-79
2023/10/23 04:53:04;;;;;;;0.00;0.00;;;12.50;99.90;;;;;;5041452;28;20037;-81
2023/10/23 04:55:33;;;;;;;0.00;0.00;;;12.60;99.90;;;;;;5042250;28;20044;-80
2023/10/23 04:58:00;;;;;;;0.00;0.00;;;12.60;99.90;;;;;;5041019;28;20033;-80
2023/10/23 05:00:26;;;;;;;;;;;12.60;99.90;;;;;;5036554;28;20028;-80
2023/10/23 05:02:51;;;;;;;0.00;0.00;;;12.70;99.90;;;;;;5037115;28;19909;-82
2023/10/23 05:05:17;;;;;;;0.00;0.00;;;12.50;99.90;;;;;;5037428;28;20022;-82
2023/10/23 05:07:42;;;;;;;0.00;0.00;;;12.50;99.90;;;;;;5045713;28;20025;-84
2023/10/23 05:10:09;;;;;;;0.00;0.00;;;12.60;99.90;;;;;;5033645;28;20022;-81
2023/10/23 05:12:35;;;;;;;0.00;0.00;;;12.60;99.90;;;;;;5047871;28;20071;-80
2023/10/23 05:15:02;;;;;;;0.00;0.00;;;12.60;99.90;;;;;;5042395;28;20044;-81
2023/10/23 05:17:28;;;;;;;0.00;0.00;;;12.60;99.90;;;;;;5030465;28;20029;-81
2023/10/23 05:19:53;;;;;;;0.00;0.00;;;12.70;99.90;;;;;;5049429;28;20035;-81
2023/10/23 05:22:19;;;;;;;0.00;0.00;;;12.60;99.90;;;;;;5043433;28;20028;-80
2023/10/23 05:24:46;;;;;;;0.00;0.00;;;12.40;99.90;;;;;;5021337;28;20336;-81
2023/10/23 05:27:12;;;;;;;0.08;0.08;;;12.30;99.90;;;;;;5035352;28;20488;-81
2023/10/23 05:29:38;;;;;;;0.00;0.00;;;12.40;99.90;;;;;;5046930;28;20123;-80
2023/10/23 05:32:04;;;;;;;0.00;0.00;;;12.30;99.90;;;;;;5043835;28;20407;-79
2023/10/23 05:34:30;;;;;;;0.00;0.00;;;12.30;99.90;;;;;;5052310;28;20048;-80
2023/10/23 05:36:56;;;;;;;0.00;0.00;;;12.30;99.90;;;;;;5042637;28;20032;-83
2023/10/23 05:39:22;;;;;;;0.00;0.00;;;12.30;99.90;;;;;;5052550;28;20031;-83
2023/10/23 05:41:47;;;;;;;0.00;0.00;;;12.30;99.90;;;;;;5045424;28;20266;-84
2023/10/23 05:44:13;;;;;;;0.00;0.00;;;12.30;99.90;;;;;;5054614;28;20079;-85
2023/10/23 05:46:38;;;;;;;0.00;0.00;;;12.30;99.90;;;;;;5053584;28;20037;-85
2023/10/23 05:49:04;;;;;;;0.00;0.00;;;12.30;99.90;;;;;;5051141;28;20021;-84
2023/10/23 05:51:30;;;;;;;0.20;0.20;;;12.30;99.90;;;;;;5044803;28;20037;-86
2023/10/23 05:53:58;;;;;;;0.00;0.00;;;12.20;99.90;;;;;;5052308;28;20032;-85
2023/10/23 05:56:24;;;;;;;0.08;0.08;;;12.20;99.90;;;;;;5042600;28;20156;-83
2023/10/23 05:58:50;;;;;;;0.00;0.00;;;12.20;99.90;;;;;;5042683;28;20518;-82
2023/10/23 06:01:17;;;;;;;0.10;0.10;;;12.30;99.90;;;;;;5036015;28;20030;-84
2023/10/23 06:03:43;;;;;;;0.00;0.00;;;12.20;99.90;;;;;;5045584;28;20031;-83
2023/10/23 06:06:09;;;;;;;0.10;0.10;;;12.40;99.90;;;;;;5040866;28;20063;-83
2023/10/23 06:08:35;;;;;;;0.10;0.10;;;12.40;99.90;;;;;;5040054;28;20017;-83
2023/10/23 06:11:01;;;;;;;0.03;0.03;;;12.50;99.90;;;;;;5040180;28;20032;-83
2023/10/23 06:13:26;;;;;;;0.50;0.50;;;12.40;99.90;;;;;;5047655;28;20040;-84
2023/10/23 06:15:52;;;;;;;0.10;0.10;;;12.30;99.90;;;;;;5040982;28;20469;-85
2023/10/23 06:18:18;;;;;;;0.00;0.00;;;12.40;99.90;;;;;;5043106;28;20033;-83
2023/10/23 06:20:44;;;;;;;0.10;0.10;;;12.30;99.90;;;;;;5045277;28;20037;-84
2023/10/23 06:23:10;;;;;;;0.00;0.00;;;12.50;99.90;;;;;;5038722;28;20110;-82
2023/10/23 06:25:35;;;;;;;0.00;0.00;;;12.40;99.90;;;;;;5033111;28;20045;-81
2023/10/23 06:28:03;;;;;;;0.07;0.07;;;12.80;99.90;;;;;;5032328;28;20489;-81
2023/10/23 06:30:29;;;;;;;0.00;0.00;;;13.10;99.90;;;;;;5031875;28;20028;-82
2023/10/23 06:32:54;;;;;;;0.00;0.00;;;13.20;99.90;;;;;;5020438;28;20131;-81
2023/10/23 06:35:20;;;;;;;0.00;0.00;;;13.30;99.90;;;;;;5045062;28;20055;-82
2023/10/23 06:37:48;;;;;;;0.00;0.00;;;13.50;99.90;;;;;;5046061;28;20025;-82
2023/10/23 06:40:14;;;;;;;0.00;0.00;;;13.50;99.90;;;;;;5043296;28;20029;-82
2023/10/23 06:42:39;;;;;;;0.10;0.10;;;13.60;99.90;;;;;;5037448;28;20440;-82
2023/10/23 06:45:06;;;;;;;0.00;0.00;;;13.60;99.90;;;;;;5040893;28;20037;-85
2023/10/23 06:47:32;;;;;;;0.00;0.00;;;13.70;99.90;;;;;;5045151;28;20484;-84
2023/10/23 06:49:59;;;;;;;0.00;0.00;;;13.80;99.90;;;;;;5046011;28;20720;-82
2023/10/23 06:52:25;;;;;;;0.08;0.08;;;13.90;99.90;;;;;;5045132;28;20033;-79
2023/10/23 06:54:51;;;;;;;0.00;0.00;;;13.90;99.90;;;;;;5044630;28;20040;-82
2023/10/23 06:57:16;;;;;;;0.00;0.00;;;14.10;99.90;;;;;;5054376;28;20492;-81
2023/10/23 06:59:42;;;;;;;0.00;0.00;;;14.10;99.90;;;;;;5049030;28;20049;-81
2023/10/23 07:02:09;;;;;;;0.00;0.00;;;14.20;99.90;;;;;;5040745;28;20480;-81
2023/10/23 07:04:34;;;;;;;0.00;0.00;;;14.10;99.90;;;;;;5044522;28;20849;-82
2023/10/23 07:07:00;;;;;;;0.00;0.00;;;14.30;99.90;;;;;;5048762;28;20037;-81
2023/10/23 07:09:26;;;;;;;0.10;0.10;;;14.40;99.90;;;;;;5045298;28;20104;-82
2023/10/23 07:11:52;;;;;;;0.03;0.03;;;14.40;99.90;;;;;;5043674;28;20750;-82
2023/10/23 07:14:18;;;;;;;0.00;0.00;;;14.60;99.90;;;;;;5043334;28;20040;-82
2023/10/23 07:16:47;;;;;;;0.00;0.00;;;15.30;99.90;;;;;;5045529;28;20043;-82
2023/10/23 07:19:12;;;;;;;0.00;0.00;;;15.70;99.90;;;;;;5042717;28;20092;-83
2023/10/23 07:21:38;;;;;;;0.00;0.00;;;16.00;99.90;;;;;;5042717;28;20082;-84
2023/10/23 07:24:04;;;;;;;0.00;0.00;;;16.40;99.90;;;;;;5023314;28;20416;-83
2023/10/23 07:26:30;;;;;;;0.00;0.00;;;16.60;99.90;;;;;;5041202;28;21270;-84
2023/10/23 07:28:55;;;;;;;0.00;0.00;;;16.70;99.90;;;;;;5040765;28;20145;-83
2023/10/23 07:31:21;;;;;;;0.00;0.00;;;16.50;99.90;;;;;;5040613;28;20052;-84
2023/10/23 07:33:47;;;;;;;0.00;0.00;;;16.80;99.90;;;;;;5043874;28;20049;-83
2023/10/23 07:36:14;;;;;;;0.00;0.00;;;17.20;99.90;;;;;;5043879;28;20678;-83
2023/10/23 07:38:44;;;;;;;0.00;0.00;;;17.60;99.90;;;;;;5041777;28;20573;-84
2023/10/23 07:41:11;;;;;;;0.00;0.00;;;17.80;99.90;;;;;;5042763;28;20044;-84
2023/10/23 07:43:37;;;;;;;0.00;0.00;;;17.20;99.90;;;;;;5022385;28;20112;-84
2023/10/23 07:46:05;;;;;;;0.00;0.00;;;17.10;99.90;;;;;;5042395;28;20108;-84
2023/10/23 07:48:31;;;;;;;0.00;0.00;;;16.80;99.90;;;;;;5023308;28;20072;-83
2023/10/23 07:50:58;;;;;;;0.00;0.00;;;16.60;99.90;;;;;;5043978;28;20452;-84
2023/10/23 07:53:24;;;;;;;0.00;0.00;;;16.50;99.90;;;;;;5019722;28;20064;-84
2023/10/23 07:55:50;;;;;;;0.00;0.00;;;16.50;99.90;;;;;;5045556;28;20108;-82
2023/10/23 07:58:16;;;;;;;0.00;0.00;;;16.50;99.90;;;;;;5040338;28;20770;-82
2023/10/23 08:00:43;;;;;;;;;;;16.80;99.90;;;;;;5039703;28;20025;-81
2023/10/23 08:03:09;;;;;;;0.00;0.00;;;16.80;99.90;;;;;;5020879;28;20500;-82
2023/10/23 08:05:35;;;;;;;0.00;0.00;;;16.70;99.90;;;;;;5044083;28;20033;-82
2023/10/23 08:08:01;;;;;;;0.00;0.00;;;16.80;99.90;;;;;;5044774;28;20031;-82
2023/10/23 08:10:27;;;;;;;0.00;0.00;;;17.10;99.90;;;;;;5043113;28;20029;-85
2023/10/23 08:12:52;;;;;;;0.00;0.00;;;17.10;99.90;;;;;;5043146;28;20824;-82
2023/10/23 08:15:18;;;;;;;0.00;0.00;;;17.10;99.90;;;;;;5051900;28;20061;-81
2023/10/23 08:17:44;;;;;;;0.00;0.00;;;17.00;99.90;;;;;;5047973;28;20071;-82
2023/10/23 08:20:10;;;;;;;0.00;0.00;;;17.10;99.90;;;;;;5053003;28;20256;-82
2023/10/23 08:22:36;;;;;;;0.00;0.00;;;17.10;99.90;;;;;;5041550;28;20109;-82
2023/10/23 08:25:02;;;;;;;0.00;0.00;;;17.20;99.90;;;;;;5024511;28;20025;-82
2023/10/23 08:27:27;;;;;;;0.10;0.10;;;17.20;99.90;;;;;;5040144;28;21078;-84
2023/10/23 08:29:53;;;;;;;0.00;0.00;;;17.30;99.90;;;;;;5047720;28;20021;-83
2023/10/23 08:32:19;;;;;;;0.00;0.00;;;17.20;99.90;;;;;;5043235;28;20020;-83
2023/10/23 08:34:44;;;;;;;0.00;0.00;;;17.20;99.90;;;;;;5041058;28;20032;-83
2023/10/23 08:37:10;;;;;;;0.00;0.00;;;17.20;99.90;;;;;;5040511;28;20048;-82
2023/10/23 08:39:37;;;;;;;0.00;0.00;;;17.30;99.90;;;;;;5043446;28;20036;-82
2023/10/23 08:42:03;;;;;;;0.00;0.00;;;17.30;99.90;;;;;;5037831;28;20022;-82
2023/10/23 08:44:29;;;;;;;0.00;0.00;;;17.40;99.90;;;;;;5039860;28;20078;-82
2023/10/23 08:46:55;;;;;;;0.00;0.00;;;17.30;99.90;;;;;;5038930;28;20041;-88
2023/10/23 08:49:21;;;;;;;0.00;0.00;;;17.40;99.90;;;;;;5028494;28;20493;-82
2023/10/23 08:51:51;;;;;;;0.00;0.00;;;17.30;99.90;;;;;;5029722;28;20033;-82
2023/10/23 08:54:18;;;;;;;0.00;0.00;;;17.40;99.90;;;;;;5046293;28;20040;-81
2023/10/23 08:56:44;;;;;;;0.00;0.00;;;17.50;99.90;;;;;;5044976;28;20035;-82
2023/10/23 08:59:13;;;;;;;0.00;0.00;;;17.40;99.90;;;;;;5049369;28;20088;-82
2023/10/23 09:01:40;;;;;;;0.00;0.00;;;17.40;99.90;;;;;;5047608;28;20523;-82
2023/10/23 09:04:06;;;;;;;0.00;0.00;;;17.50;99.90;;;;;;5040886;28;20788;-82
2023/10/23 09:06:35;;;;;;;0.00;0.00;;;17.50;99.90;;;;;;5047498;28;20111;-82
2023/10/23 09:09:02;;;;;;;0.00;0.00;;;17.50;99.90;;;;;;5030408;28;20030;-82
2023/10/23 09:11:41;;;;;;;0.00;0.00;;;17.50;99.90;;;;;;5044482;28;20595;-82
2023/10/23 09:14:07;;;;;;;0.00;0.00;;;17.50;99.90;;;;;;5038310;28;20571;-82
2023/10/23 09:16:33;;;;;;;0.00;0.00;;;17.50;99.90;;;;;;5041437;28;20033;-82
2023/10/23 09:18:59;;;;;;;0.00;0.00;;;17.40;99.90;;;;;;5046053;28;20817;-82
2023/10/23 09:21:25;;;;;;;0.00;0.00;;;17.40;99.90;;;;;;5047077;28;20021;-82
2023/10/23 09:23:56;;;;;;;0.00;0.00;;;17.50;99.90;;;;;;5045399;28;20029;-80
2023/10/23 09:26:22;;;;;;;0.00;0.00;;;17.60;99.90;;;;;;5047205;28;20036;-82
2023/10/23 09:28:50;;;;;;;0.00;0.00;;;17.50;99.90;;;;;;5046479;28;20059;-84
2023/10/23 09:31:16;;;;;;;0.00;0.00;;;17.60;99.90;;;;;;5031712;28;20033;-82
2023/10/23 09:33:45;;;;;;;0.00;0.00;;;17.60;99.90;;;;;;5045159;28;20592;-83
2023/10/23 09:36:11;;;;;;;0.00;0.00;;;17.60;99.90;;;;;;5044211;28;20488;-82
2023/10/23 09:38:39;;;;;;;0.00;0.00;;;17.50;99.90;;;;;;5044371;28;20462;-84
2023/10/23 09:41:12;;;;;;;0.00;0.00;;;17.60;99.90;;;;;;5044877;28;20024;-83
2023/10/23 09:43:48;;;;;;;0.00;0.00;;;17.40;99.90;;;;;;5034919;28;20129;-84
2023/10/23 09:46:14;;;;;;;0.70;0.70;;;17.50;99.90;;;;;;5041927;28;20029;-83
2023/10/23 09:48:44;;;;;;;0.00;0.00;;;17.60;99.90;;;;;;5045330;28;20025;-83
2023/10/23 09:51:16;;;;;;;1.65;1.55;;;17.50;99.90;;;;;;5047079;28;20429;-83
2023/10/23 09:53:48;;;;;;;0.00;0.00;;;17.50;99.90;;;;;;5042726;28;20051;-83
2023/10/23 09:56:19;;;;;;;0.00;0.00;;;17.50;99.90;;;;;;5045426;28;20043;-85
2023/10/23 09:58:59;;;;;;;0.00;0.00;;;17.50;99.90;;;;;;5042121;28;20060;-85
2023/10/23 10:01:41;;;;;;;0.00;0.00;;;17.40;99.90;;;;;;5039386;28;21447;-86
2023/10/23 10:04:17;;;;;;;0.00;0.00;;;17.30;99.90;;;;;;5044971;28;20029;-84
2023/10/23 10:06:49;;;;;;;0.10;0.10;;;16.90;99.90;;;;;;5052829;28;20025;-85
2023/10/23 10:09:16;;;;;;;0.00;0.00;;;16.40;99.90;;;;;;5051577;28;20036;-86
2023/10/23 10:11:45;;;;;;;0.00;0.00;;;16.50;99.90;;;;;;5044290;28;20048;-84
2023/10/23 10:14:14;;;;;;;0.00;0.00;;;16.40;99.90;;;;;;5044888;28;20058;-87
2023/10/23 10:16:41;;;;;;;0.00;0.00;;;16.30;99.90;;;;;;5046782;28;20108;-83
2023/10/23 10:19:07;;;;;;;4.22;3.10;;;16.20;99.90;;;;;;5047011;28;20040;-84
2023/10/23 10:21:45;;;;;;;0.00;0.00;;;16.50;99.90;;;;;;5042745;28;20027;-85
2023/10/23 10:24:12;;;;;;;0.00;0.00;;;16.20;99.90;;;;;;5041419;28;20146;-86
2023/10/23 10:26:38;;;;;;;0.00;0.00;;;16.20;99.90;;;;;;5046640;28;20104;-85
2023/10/23 10:29:04;;;;;;;0.00;0.00;;;15.90;99.90;;;;;;5042289;28;20032;-86
2023/10/23 10:32:11;;;;;;;2.67;1.13;;;16.00;99.90;;;;;;5043243;28;20033;-86
2023/10/23 10:34:48;;;;;;;0.00;0.00;;;15.90;99.90;;;;;;5045687;28;20157;-84
2023/10/23 10:37:14;;;;;;;0.00;0.00;;;16.40;99.90;;;;;;5047026;28;20028;-85
2023/10/23 10:40:04;;;;;;;0.00;0.00;;;16.40;99.90;;;;;;5056353;28;20699;-86
2023/10/23 10:42:34;;;;;;;0.00;0.00;;;16.40;99.90;;;;;;5033192;28;20044;-85
2023/10/23 10:45:20;;;;;;;0.00;0.00;;;16.30;99.90;;;;;;5050250;28;20031;-86
2023/10/23 10:47:53;;;;;;;0.10;0.10;;;16.10;99.90;;;;;;5054900;28;20539;-86
2023/10/23 10:50:36;;;;;;;0.10;0.10;;;16.30;99.90;;;;;;5041015;28;20167;-86
2023/10/23 10:53:07;;;;;;;0.00;0.00;;;16.30;99.90;;;;;;5032001;28;20036;-86
2023/10/23 10:55:35;;;;;;;0.00;0.00;;;16.10;99.90;;;;;;5039443;28;20030;-86
2023/10/23 10:58:02;;;;;;;0.10;0.10;;;15.90;99.90;;;;;;5045723;28;20543;-86
2023/10/23 11:00:32;;;;;;;0.00;0.00;;;15.80;99.90;;;;;;5019793;28;20064;-85
2023/10/23 11:02:58;;;;;;;0.00;0.00;;;15.70;99.90;;;;;;5041037;28;20029;-85
2023/10/23 11:05:24;;;;;;;0.00;0.00;;;15.70;99.90;;;;;;5043419;28;20577;-85
2023/10/23 11:07:51;;;;;;;0.00;0.00;;;15.60;99.90;;;;;;5050217;28;20033;-86
2023/10/23 11:10:16;;;;;;;;;;;15.60;99.90;;;;;;5044093;28;21114;-86
2023/10/23 11:12:42;;;;;;;0.70;0.70;;;15.70;99.90;;;;;;5048348;28;19927;-86
2023/10/23 11:15:08;;;;;;;0.10;0.10;;;15.70;99.90;;;;;;5034413;28;20287;-86
2023/10/23 11:17:34;;;;;;;0.13;0.13;;;15.80;99.90;;;;;;5050402;28;20029;-86
2023/10/23 11:20:06;;;;;;;0.10;0.10;;;15.60;99.90;;;;;;5044103;28;20032;-87
2023/10/23 11:22:32;;;;;;;0.00;0.00;;;15.60;99.90;;;;;;5043051;28;20033;-86
2023/10/23 11:24:57;;;;;;;0.10;0.10;;;15.60;99.90;;;;;;5041317;28;20481;-86
2023/10/23 11:27:23;;;;;;;0.07;0.07;;;15.60;99.90;;;;;;5042681;28;20555;-87
2023/10/23 11:29:49;;;;;;;0.00;0.00;;;15.60;99.90;;;;;;5044232;28;20117;-86
2023/10/23 11:32:18;;;;;;;0.00;0.00;;;15.60;99.90;;;;;;5045609;28;20020;-85
2023/10/23 11:34:47;;;;;;;0.00;0.00;;;15.60;99.90;;;;;;5041165;28;20136;-86
2023/10/23 11:37:13;;;;;;;0.00;0.00;;;15.70;99.90;;;;;;5042483;28;20024;-87
2023/10/23 11:39:42;;;;;;;0.00;0.00;;;15.70;99.90;;;;;;5025926;28;20041;-86
2023/10/23 11:42:09;;;;;;;0.00;0.00;;;15.80;99.90;;;;;;5040170;28;20462;-87
2023/10/23 11:44:35;;;;;;;;;;;15.80;99.90;;;;;;5049789;28;20035;-86
2023/10/23 11:47:04;;;;;;;0.20;0.20;;;15.70;99.90;;;;;;5040571;28;19917;-86
2023/10/23 11:49:31;;;;;;;0.00;0.00;;;15.70;99.90;;;;;;5043810;28;20028;-85
2023/10/23 11:51:57;;;;;;;0.10;0.10;;;15.70;99.90;;;;;;5043527;28;20040;-85
2023/10/23 11:54:27;;;;;;;0.03;0.03;;;15.60;99.90;;;;;;5046871;28;20074;-85
2023/10/23 11:57:00;;;;;;;0.10;0.10;;;15.60;99.90;;;;;;5048098;28;20024;-86
2023/10/23 11:59:26;;;;;;;1.55;0.95;;;15.60;99.90;;;;;;5035796;28;20049;-86
2023/10/23 12:01:54;;;;;;;0.00;0.00;;;15.60;99.90;;;;;;5044740;28;20101;-85
2023/10/23 12:04:19;;;;;;;0.00;0.00;;;15.80;99.90;;;;;;5038282;28;20397;-85
2023/10/23 12:06:45;;;;;;;0.00;0.00;;;15.70;99.90;;;;;;5036359;28;20032;-83
2023/10/23 12:09:11;;;;;;;0.00;0.00;;;15.70;99.90;;;;;;5016026;28;20029;-84
2023/10/23 12:11:37;;;;;;;0.00;0.00;;;15.60;99.90;;;;;;5020031;28;20171;-85
2023/10/23 12:14:03;;;;;;;0.10;0.10;;;15.70;99.90;;;;;;5042901;28;20400;-84
2023/10/23 12:16:30;;;;;;;0.00;0.00;;;15.60;99.90;;;;;;5042716;28;20029;-85
2023/10/23 12:18:56;;;;;;;0.10;0.10;;;15.60;99.90;;;;;;5025363;28;20393;-86
2023/10/23 12:21:22;;;;;;;0.00;0.00;;;15.60;99.90;;;;;;5042614;28;20404;-86
2023/10/23 12:23:49;;;;;;;0.00;0.00;;;15.40;99.90;;;;;;5042469;28;20271;-85
2023/10/23 12:26:15;;;;;;;0.38;0.30;;;15.50;99.90;;;;;;5024252;28;20123;-86
2023/10/23 12:28:41;;;;;;;0.98;0.50;;;15.70;99.90;;;;;;5043450;28;20033;-87
2023/10/23 12:31:07;;;;;;;3.20;2.70;;;15.70;99.90;;;;;;5043320;28;20771;-87
2023/10/23 12:33:33;;;;;;;0.00;0.00;;;15.60;99.90;;;;;;5043247;28;20047;-86
2023/10/23 12:36:04;;;;;;;0.00;0.00;;;15.60;99.90;;;;;;5042744;28;20033;-86
2023/10/23 12:38:33;;;;;;;1.55;1.45;;;15.70;99.90;;;;;;5043241;28;20017;-87
2023/10/23 12:41:00;;;;;;;0.00;0.00;;;15.60;99.90;;;;;;5043332;28;20048;-86
2023/10/23 12:43:26;;;;;;;0.00;0.00;;;15.70;99.90;;;;;;5043300;28;20092;-86
2023/10/23 12:45:52;;;;;;;0.00;0.00;;;15.70;99.90;;;;;;5043166;28;20112;-86